sensor_id;sensor_type;location;lat;lon;timestamp;P1;durP1;ratioP1;P2;durP2;ratioP2
11008;SDS011;5557;51.670;7.788;2024-03-07T00:02:22;55.20;;;38.27;;
11008;SDS011;5557;51.670;7.788;2024-03-07T00:04:50;60.27;;;38.77;;
11008;SDS011;5557;51.670;7.788;2024-03-07T00:07:18;48.93;;;35.30;;
11008;SDS011;5557;51.670;7.788;2024-03-07T00:09:45;53.30;;;36.93;;
11008;SDS011;5557;51.670;7.788;2024-03-07T00:12:12;61.20;;;36.60;;
11008;SDS011;5557;51.670;7.788;2024-03-07T00:14:39;51.23;;;32.97;;
11008;SDS011;5557;51.670;7.788;2024-03-07T00:17:06;54.97;;;34.23;;
11008;SDS011;5557;51.670;7.788;2024-03-07T00:19:34;47.50;;;34.67;;
11008;SDS011;5557;51.670;7.788;2024-03-07T00:22:01;50.43;;;34.67;;
11008;SDS011;5557;51.670;7.788;2024-03-07T00:24:28;52.13;;;38.30;;
11008;SDS011;5557;51.670;7.788;2024-03-07T00:26:55;50.60;;;33.67;;
11008;SDS011;5557;51.670;7.788;2024-03-07T00:29:23;54.73;;;34.83;;
11008;SDS011;5557;51.670;7.788;2024-03-07T00:31:52;51.47;;;35.23;;
11008;SDS011;5557;51.670;7.788;2024-03-07T00:34:20;52.40;;;34.00;;
11008;SDS011;5557;51.670;7.788;2024-03-07T00:36:51;48.67;;;33.10;;
11008;SDS011;5557;51.670;7.788;2024-03-07T00:39:19;51.03;;;34.90;;
11008;SDS011;5557;51.670;7.788;2024-03-07T00:41:46;45.57;;;34.07;;
11008;SDS011;5557;51.670;7.788;2024-03-07T00:44:13;48.70;;;33.83;;
11008;SDS011;5557;51.670;7.788;2024-03-07T00:46:40;49.10;;;37.53;;
11008;SDS011;5557;51.670;7.788;2024-03-07T00:49:08;46.00;;;33.20;;
11008;SDS011;5557;51.670;7.788;2024-03-07T00:51:35;44.53;;;31.97;;
11008;SDS011;5557;51.670;7.788;2024-03-07T00:54:04;50.40;;;35.63;;
11008;SDS011;5557;51.670;7.788;2024-03-07T00:56:32;50.10;;;35.70;;
11008;SDS011;5557;51.670;7.788;2024-03-07T00:59:00;49.50;;;35.57;;
11008;SDS011;5557;51.670;7.788;2024-03-07T01:01:27;49.37;;;35.33;;
11008;SDS011;5557;51.670;7.788;2024-03-07T01:03:54;55.40;;;36.33;;
11008;SDS011;5557;51.670;7.788;2024-03-07T01:06:21;50.67;;;36.50;;
11008;SDS011;5557;51.670;7.788;2024-03-07T01:08:48;52.03;;;35.07;;
11008;SDS011;5557;51.670;7.788;2024-03-07T01:11:16;46.13;;;34.40;;
11008;SDS011;5557;51.670;7.788;2024-03-07T01:13:44;54.23;;;34.80;;
11008;SDS011;5557;51.670;7.788;2024-03-07T01:16:11;47.13;;;33.87;;
11008;SDS011;5557;51.670;7.788;2024-03-07T01:18:38;53.73;;;36.10;;
11008;SDS011;5557;51.670;7.788;2024-03-07T01:21:05;47.73;;;34.03;;
11008;SDS011;5557;51.670;7.788;2024-03-07T01:23:32;51.40;;;34.90;;
11008;SDS011;5557;51.670;7.788;2024-03-07T01:25:59;55.30;;;35.50;;
11008;SDS011;5557;51.670;7.788;2024-03-07T01:28:27;50.73;;;35.20;;
11008;SDS011;5557;51.670;7.788;2024-03-07T01:30:56;55.20;;;34.30;;
11008;SDS011;5557;51.670;7.788;2024-03-07T01:33:24;47.93;;;35.73;;
11008;SDS011;5557;51.670;7.788;2024-03-07T01:35:51;52.03;;;35.63;;
11008;SDS011;5557;51.670;7.788;2024-03-07T01:38:18;47.47;;;34.73;;
11008;SDS011;5557;51.670;7.788;2024-03-07T01:40:45;50.30;;;36.13;;
11008;SDS011;5557;51.670;7.788;2024-03-07T01:43:12;52.93;;;36.73;;
11008;SDS011;5557;51.670;7.788;2024-03-07T01:45:39;55.30;;;35.73;;
11008;SDS011;5557;51.670;7.788;2024-03-07T01:48:08;52.63;;;35.20;;
11008;SDS011;5557;51.670;7.788;2024-03-07T01:50:36;54.17;;;35.20;;
11008;SDS011;5557;51.670;7.788;2024-03-07T01:53:06;46.10;;;35.03;;
11008;SDS011;5557;51.670;7.788;2024-03-07T01:55:36;44.90;;;33.60;;
11008;SDS011;5557;51.670;7.788;2024-03-07T01:58:04;49.30;;;33.60;;
11008;SDS011;5557;51.670;7.788;2024-03-07T02:00:32;44.30;;;32.70;;
11008;SDS011;5557;51.670;7.788;2024-03-07T02:02:59;48.07;;;32.70;;
11008;SDS011;5557;51.670;7.788;2024-03-07T02:05:26;48.27;;;34.20;;
11008;SDS011;5557;51.670;7.788;2024-03-07T02:07:53;41.90;;;32.33;;
11008;SDS011;5557;51.670;7.788;2024-03-07T02:10:20;53.00;;;33.90;;
11008;SDS011;5557;51.670;7.788;2024-03-07T02:12:47;46.53;;;34.27;;
11008;SDS011;5557;51.670;7.788;2024-03-07T02:15:14;53.83;;;34.70;;
11008;SDS011;5557;51.670;7.788;2024-03-07T02:17:41;44.20;;;32.73;;
11008;SDS011;5557;51.670;7.788;2024-03-07T02:20:09;44.80;;;32.33;;
11008;SDS011;5557;51.670;7.788;2024-03-07T02:22:41;42.57;;;32.00;;
11008;SDS011;5557;51.670;7.788;2024-03-07T02:25:08;44.40;;;33.30;;
11008;SDS011;5557;51.670;7.788;2024-03-07T02:27:38;47.33;;;32.63;;
11008;SDS011;5557;51.670;7.788;2024-03-07T02:30:06;52.60;;;34.47;;
11008;SDS011;5557;51.670;7.788;2024-03-07T02:32:35;46.23;;;32.70;;
11008;SDS011;5557;51.670;7.788;2024-03-07T02:35:06;44.43;;;33.33;;
11008;SDS011;5557;51.670;7.788;2024-03-07T02:37:35;46.73;;;33.93;;
11008;SDS011;5557;51.670;7.788;2024-03-07T02:40:02;58.77;;;36.30;;
11008;SDS011;5557;51.670;7.788;2024-03-07T02:42:29;47.30;;;34.00;;
11008;SDS011;5557;51.670;7.788;2024-03-07T02:44:56;46.23;;;34.60;;
11008;SDS011;5557;51.670;7.788;2024-03-07T02:47:24;47.33;;;34.73;;
11008;SDS011;5557;51.670;7.788;2024-03-07T02:49:52;45.13;;;34.80;;
11008;SDS011;5557;51.670;7.788;2024-03-07T02:52:19;51.10;;;36.00;;
11008;SDS011;5557;51.670;7.788;2024-03-07T02:54:46;47.83;;;36.03;;
11008;SDS011;5557;51.670;7.788;2024-03-07T02:57:13;49.57;;;36.43;;
11008;SDS011;5557;51.670;7.788;2024-03-07T02:59:40;50.87;;;36.83;;
11008;SDS011;5557;51.670;7.788;2024-03-07T03:02:07;59.40;;;37.17;;
11008;SDS011;5557;51.670;7.788;2024-03-07T03:04:34;57.33;;;36.37;;
11008;SDS011;5557;51.670;7.788;2024-03-07T03:07:01;56.93;;;37.20;;
11008;SDS011;5557;51.670;7.788;2024-03-07T03:09:28;54.80;;;38.17;;
11008;SDS011;5557;51.670;7.788;2024-03-07T03:11:55;54.30;;;37.97;;
11008;SDS011;5557;51.670;7.788;2024-03-07T03:14:22;54.17;;;35.83;;
11008;SDS011;5557;51.670;7.788;2024-03-07T03:16:49;49.50;;;37.50;;
11008;SDS011;5557;51.670;7.788;2024-03-07T03:19:16;52.13;;;37.17;;
11008;SDS011;5557;51.670;7.788;2024-03-07T03:21:43;48.83;;;37.93;;
11008;SDS011;5557;51.670;7.788;2024-03-07T03:24:10;53.97;;;39.60;;
11008;SDS011;5557;51.670;7.788;2024-03-07T03:26:37;55.60;;;39.27;;
11008;SDS011;5557;51.670;7.788;2024-03-07T03:29:04;53.93;;;40.80;;
11008;SDS011;5557;51.670;7.788;2024-03-07T03:31:32;60.40;;;42.43;;
11008;SDS011;5557;51.670;7.788;2024-03-07T03:33:59;50.40;;;40.83;;
11008;SDS011;5557;51.670;7.788;2024-03-07T03:36:27;58.10;;;40.00;;
11008;SDS011;5557;51.670;7.788;2024-03-07T03:38:54;54.07;;;40.73;;
11008;SDS011;5557;51.670;7.788;2024-03-07T03:41:22;55.93;;;40.23;;
11008;SDS011;5557;51.670;7.788;2024-03-07T03:43:49;47.20;;;37.60;;
11008;SDS011;5557;51.670;7.788;2024-03-07T03:46:18;48.10;;;37.10;;
11008;SDS011;5557;51.670;7.788;2024-03-07T03:48:45;49.10;;;36.67;;
11008;SDS011;5557;51.670;7.788;2024-03-07T03:51:12;46.27;;;36.07;;
11008;SDS011;5557;51.670;7.788;2024-03-07T03:53:40;46.10;;;35.10;;
11008;SDS011;5557;51.670;7.788;2024-03-07T03:56:10;46.20;;;36.70;;
11008;SDS011;5557;51.670;7.788;2024-03-07T03:58:42;41.67;;;34.40;;
11008;SDS011;5557;51.670;7.788;2024-03-07T04:01:11;48.27;;;34.37;;
11008;SDS011;5557;51.670;7.788;2024-03-07T04:03:41;44.27;;;34.07;;
11008;SDS011;5557;51.670;7.788;2024-03-07T04:06:08;45.37;;;35.10;;
11008;SDS011;5557;51.670;7.788;2024-03-07T04:08:35;43.30;;;34.20;;
11008;SDS011;5557;51.670;7.788;2024-03-07T04:11:06;40.37;;;32.33;;
11008;SDS011;5557;51.670;7.788;2024-03-07T04:13:36;40.40;;;33.63;;
11008;SDS011;5557;51.670;7.788;2024-03-07T04:16:06;43.77;;;34.30;;
11008;SDS011;5557;51.670;7.788;2024-03-07T04:18:35;42.97;;;34.27;;
11008;SDS011;5557;51.670;7.788;2024-03-07T04:21:02;41.70;;;33.30;;
11008;SDS011;5557;51.670;7.788;2024-03-07T04:23:29;44.17;;;33.37;;
11008;SDS011;5557;51.670;7.788;2024-03-07T04:25:57;41.70;;;33.27;;
11008;SDS011;5557;51.670;7.788;2024-03-07T04:28:25;40.40;;;34.03;;
11008;SDS011;5557;51.670;7.788;2024-03-07T04:30:52;48.07;;;35.00;;
11008;SDS011;5557;51.670;7.788;2024-03-07T04:33:20;45.23;;;35.40;;
11008;SDS011;5557;51.670;7.788;2024-03-07T04:35:47;50.80;;;33.63;;
11008;SDS011;5557;51.670;7.788;2024-03-07T04:38:15;40.40;;;31.57;;
11008;SDS011;5557;51.670;7.788;2024-03-07T04:40:42;45.20;;;34.97;;
11008;SDS011;5557;51.670;7.788;2024-03-07T04:43:09;43.20;;;33.27;;
11008;SDS011;5557;51.670;7.788;2024-03-07T04:45:38;40.00;;;31.50;;
11008;SDS011;5557;51.670;7.788;2024-03-07T04:48:05;44.13;;;34.33;;
11008;SDS011;5557;51.670;7.788;2024-03-07T04:50:33;43.30;;;33.47;;
11008;SDS011;5557;51.670;7.788;2024-03-07T04:53:00;42.73;;;33.97;;
11008;SDS011;5557;51.670;7.788;2024-03-07T04:55:29;41.27;;;33.90;;
11008;SDS011;5557;51.670;7.788;2024-03-07T04:57:58;41.87;;;33.03;;
11008;SDS011;5557;51.670;7.788;2024-03-07T05:00:27;39.23;;;32.27;;
11008;SDS011;5557;51.670;7.788;2024-03-07T05:02:55;41.40;;;33.20;;
11008;SDS011;5557;51.670;7.788;2024-03-07T05:05:23;40.93;;;33.50;;
11008;SDS011;5557;51.670;7.788;2024-03-07T05:07:53;41.20;;;32.90;;
11008;SDS011;5557;51.670;7.788;2024-03-07T05:10:20;46.43;;;33.30;;
11008;SDS011;5557;51.670;7.788;2024-03-07T05:12:48;40.17;;;33.90;;
11008;SDS011;5557;51.670;7.788;2024-03-07T05:15:15;41.83;;;34.60;;
11008;SDS011;5557;51.670;7.788;2024-03-07T05:17:42;39.10;;;33.00;;
11008;SDS011;5557;51.670;7.788;2024-03-07T05:20:12;41.77;;;33.30;;
11008;SDS011;5557;51.670;7.788;2024-03-07T05:22:40;41.83;;;34.63;;
11008;SDS011;5557;51.670;7.788;2024-03-07T05:25:08;38.97;;;32.87;;
11008;SDS011;5557;51.670;7.788;2024-03-07T05:27:36;41.67;;;33.13;;
11008;SDS011;5557;51.670;7.788;2024-03-07T05:30:05;42.90;;;33.30;;
11008;SDS011;5557;51.670;7.788;2024-03-07T05:32:37;44.47;;;35.70;;
11008;SDS011;5557;51.670;7.788;2024-03-07T05:35:05;40.80;;;34.10;;
11008;SDS011;5557;51.670;7.788;2024-03-07T05:37:33;43.13;;;35.23;;
11008;SDS011;5557;51.670;7.788;2024-03-07T05:40:00;45.87;;;36.80;;
11008;SDS011;5557;51.670;7.788;2024-03-07T05:42:30;43.37;;;34.27;;
11008;SDS011;5557;51.670;7.788;2024-03-07T05:44:58;45.10;;;36.50;;
11008;SDS011;5557;51.670;7.788;2024-03-07T05:47:26;44.40;;;36.60;;
11008;SDS011;5557;51.670;7.788;2024-03-07T05:49:53;41.73;;;34.30;;
11008;SDS011;5557;51.670;7.788;2024-03-07T05:52:21;45.23;;;35.80;;
11008;SDS011;5557;51.670;7.788;2024-03-07T05:54:48;42.80;;;35.30;;
11008;SDS011;5557;51.670;7.788;2024-03-07T05:57:16;42.20;;;34.20;;
11008;SDS011;5557;51.670;7.788;2024-03-07T05:59:43;44.27;;;35.90;;
11008;SDS011;5557;51.670;7.788;2024-03-07T06:02:13;41.00;;;34.40;;
11008;SDS011;5557;51.670;7.788;2024-03-07T06:04:43;43.80;;;35.70;;
11008;SDS011;5557;51.670;7.788;2024-03-07T06:07:10;43.90;;;35.10;;
11008;SDS011;5557;51.670;7.788;2024-03-07T06:09:38;42.83;;;33.90;;
11008;SDS011;5557;51.670;7.788;2024-03-07T06:12:06;44.03;;;35.40;;
11008;SDS011;5557;51.670;7.788;2024-03-07T06:14:48;44.10;;;33.80;;
11008;SDS011;5557;51.670;7.788;2024-03-07T06:17:16;45.30;;;33.37;;
11008;SDS011;5557;51.670;7.788;2024-03-07T06:19:48;44.67;;;32.77;;
11008;SDS011;5557;51.670;7.788;2024-03-07T06:22:15;39.97;;;33.33;;
11008;SDS011;5557;51.670;7.788;2024-03-07T06:24:43;39.93;;;32.67;;
11008;SDS011;5557;51.670;7.788;2024-03-07T06:27:11;38.13;;;31.73;;
11008;SDS011;5557;51.670;7.788;2024-03-07T06:29:54;43.50;;;32.80;;
11008;SDS011;5557;51.670;7.788;2024-03-07T06:32:21;43.80;;;33.63;;
11008;SDS011;5557;51.670;7.788;2024-03-07T06:34:49;39.40;;;32.60;;
11008;SDS011;5557;51.670;7.788;2024-03-07T06:37:17;41.13;;;32.33;;
11008;SDS011;5557;51.670;7.788;2024-03-07T06:39:45;39.00;;;32.50;;
11008;SDS011;5557;51.670;7.788;2024-03-07T06:42:14;38.17;;;33.90;;
11008;SDS011;5557;51.670;7.788;2024-03-07T06:44:42;40.17;;;32.60;;
11008;SDS011;5557;51.670;7.788;2024-03-07T06:47:10;37.90;;;31.77;;
11008;SDS011;5557;51.670;7.788;2024-03-07T06:49:37;40.27;;;32.80;;
11008;SDS011;5557;51.670;7.788;2024-03-07T06:52:06;39.77;;;33.33;;
11008;SDS011;5557;51.670;7.788;2024-03-07T06:54:35;42.23;;;32.17;;
11008;SDS011;5557;51.670;7.788;2024-03-07T06:57:02;36.17;;;31.60;;
11008;SDS011;5557;51.670;7.788;2024-03-07T06:59:30;33.00;;;29.00;;
11008;SDS011;5557;51.670;7.788;2024-03-07T07:01:58;34.77;;;30.40;;
11008;SDS011;5557;51.670;7.788;2024-03-07T07:04:25;43.30;;;31.97;;
11008;SDS011;5557;51.670;7.788;2024-03-07T07:06:58;39.77;;;32.20;;
11008;SDS011;5557;51.670;7.788;2024-03-07T07:09:27;37.10;;;31.07;;
11008;SDS011;5557;51.670;7.788;2024-03-07T07:11:55;39.20;;;32.47;;
11008;SDS011;5557;51.670;7.788;2024-03-07T07:14:23;40.13;;;31.50;;
11008;SDS011;5557;51.670;7.788;2024-03-07T07:16:50;41.43;;;31.23;;
11008;SDS011;5557;51.670;7.788;2024-03-07T07:19:18;35.87;;;30.40;;
11008;SDS011;5557;51.670;7.788;2024-03-07T07:21:45;37.10;;;31.03;;
11008;SDS011;5557;51.670;7.788;2024-03-07T07:24:14;35.90;;;30.37;;
11008;SDS011;5557;51.670;7.788;2024-03-07T07:26:40;35.73;;;29.17;;
11008;SDS011;5557;51.670;7.788;2024-03-07T07:29:07;39.50;;;30.13;;
11008;SDS011;5557;51.670;7.788;2024-03-07T07:31:36;34.43;;;28.37;;
11008;SDS011;5557;51.670;7.788;2024-03-07T07:34:03;32.37;;;26.00;;
11008;SDS011;5557;51.670;7.788;2024-03-07T07:36:30;40.47;;;31.53;;
11008;SDS011;5557;51.670;7.788;2024-03-07T07:38:58;37.80;;;29.07;;
11008;SDS011;5557;51.670;7.788;2024-03-07T07:41:26;36.37;;;27.93;;
11008;SDS011;5557;51.670;7.788;2024-03-07T07:43:54;35.63;;;28.20;;
11008;SDS011;5557;51.670;7.788;2024-03-07T07:46:21;32.50;;;27.20;;
11008;SDS011;5557;51.670;7.788;2024-03-07T07:48:48;34.97;;;28.10;;
11008;SDS011;5557;51.670;7.788;2024-03-07T07:51:15;35.97;;;28.30;;
11008;SDS011;5557;51.670;7.788;2024-03-07T07:53:42;35.53;;;26.20;;
11008;SDS011;5557;51.670;7.788;2024-03-07T07:56:10;38.17;;;27.70;;
11008;SDS011;5557;51.670;7.788;2024-03-07T07:58:37;35.87;;;27.83;;
11008;SDS011;5557;51.670;7.788;2024-03-07T08:01:04;33.50;;;28.23;;
11008;SDS011;5557;51.670;7.788;2024-03-07T08:03:34;39.90;;;27.17;;
11008;SDS011;5557;51.670;7.788;2024-03-07T08:06:01;35.20;;;27.50;;
11008;SDS011;5557;51.670;7.788;2024-03-07T08:08:29;36.80;;;29.30;;
11008;SDS011;5557;51.670;7.788;2024-03-07T08:10:56;36.00;;;27.90;;
11008;SDS011;5557;51.670;7.788;2024-03-07T08:13:23;38.30;;;28.60;;
11008;SDS011;5557;51.670;7.788;2024-03-07T08:15:51;33.23;;;26.73;;
11008;SDS011;5557;51.670;7.788;2024-03-07T08:18:20;38.80;;;28.93;;
11008;SDS011;5557;51.670;7.788;2024-03-07T08:20:47;34.57;;;25.70;;
11008;SDS011;5557;51.670;7.788;2024-03-07T08:23:19;32.33;;;25.57;;
11008;SDS011;5557;51.670;7.788;2024-03-07T08:25:46;38.97;;;28.20;;
11008;SDS011;5557;51.670;7.788;2024-03-07T08:28:13;35.90;;;26.87;;
11008;SDS011;5557;51.670;7.788;2024-03-07T08:30:40;39.00;;;27.33;;
11008;SDS011;5557;51.670;7.788;2024-03-07T08:33:07;33.23;;;25.40;;
11008;SDS011;5557;51.670;7.788;2024-03-07T08:35:34;31.40;;;25.63;;
11008;SDS011;5557;51.670;7.788;2024-03-07T08:38:02;36.33;;;25.90;;
11008;SDS011;5557;51.670;7.788;2024-03-07T08:40:29;30.50;;;25.13;;
11008;SDS011;5557;51.670;7.788;2024-03-07T08:43:01;33.70;;;26.10;;
11008;SDS011;5557;51.670;7.788;2024-03-07T08:45:29;35.57;;;26.83;;
11008;SDS011;5557;51.670;7.788;2024-03-07T08:48:01;39.30;;;26.10;;
11008;SDS011;5557;51.670;7.788;2024-03-07T08:50:31;33.67;;;25.13;;
11008;SDS011;5557;51.670;7.788;2024-03-07T08:53:01;33.37;;;24.97;;
11008;SDS011;5557;51.670;7.788;2024-03-07T08:55:28;35.43;;;26.77;;
11008;SDS011;5557;51.670;7.788;2024-03-07T08:57:55;38.60;;;25.60;;
11008;SDS011;5557;51.670;7.788;2024-03-07T09:00:22;38.07;;;28.40;;
11008;SDS011;5557;51.670;7.788;2024-03-07T09:02:57;36.27;;;25.20;;
11008;SDS011;5557;51.670;7.788;2024-03-07T09:05:28;34.83;;;24.63;;
11008;SDS011;5557;51.670;7.788;2024-03-07T09:07:56;37.50;;;26.67;;
11008;SDS011;5557;51.670;7.788;2024-03-07T09:10:24;35.43;;;25.70;;
11008;SDS011;5557;51.670;7.788;2024-03-07T09:12:52;36.67;;;24.90;;
11008;SDS011;5557;51.670;7.788;2024-03-07T09:15:21;40.20;;;26.50;;
11008;SDS011;5557;51.670;7.788;2024-03-07T09:17:50;37.20;;;25.70;;
11008;SDS011;5557;51.670;7.788;2024-03-07T09:20:18;36.57;;;25.77;;
11008;SDS011;5557;51.670;7.788;2024-03-07T09:22:46;32.10;;;24.83;;
11008;SDS011;5557;51.670;7.788;2024-03-07T09:25:14;35.60;;;24.53;;
11008;SDS011;5557;51.670;7.788;2024-03-07T09:27:55;36.47;;;25.50;;
11008;SDS011;5557;51.670;7.788;2024-03-07T09:30:51;30.93;;;23.53;;
11008;SDS011;5557;51.670;7.788;2024-03-07T09:33:18;36.80;;;22.83;;
11008;SDS011;5557;51.670;7.788;2024-03-07T09:35:46;32.30;;;23.77;;
11008;SDS011;5557;51.670;7.788;2024-03-07T09:38:14;30.53;;;23.43;;
11008;SDS011;5557;51.670;7.788;2024-03-07T09:40:41;31.90;;;23.23;;
11008;SDS011;5557;51.670;7.788;2024-03-07T09:43:08;35.87;;;23.87;;
11008;SDS011;5557;51.670;7.788;2024-03-07T09:45:40;35.33;;;24.43;;
11008;SDS011;5557;51.670;7.788;2024-03-07T09:48:09;36.40;;;25.37;;
11008;SDS011;5557;51.670;7.788;2024-03-07T09:50:37;34.10;;;24.70;;
11008;SDS011;5557;51.670;7.788;2024-03-07T09:53:05;34.53;;;23.03;;
11008;SDS011;5557;51.670;7.788;2024-03-07T09:55:32;35.57;;;23.43;;
11008;SDS011;5557;51.670;7.788;2024-03-07T09:58:00;32.80;;;23.40;;
11008;SDS011;5557;51.670;7.788;2024-03-07T10:00:30;33.70;;;23.53;;
11008;SDS011;5557;51.670;7.788;2024-03-07T10:03:03;34.70;;;24.30;;
11008;SDS011;5557;51.670;7.788;2024-03-07T10:05:40;33.80;;;24.27;;
11008;SDS011;5557;51.670;7.788;2024-03-07T10:08:08;35.40;;;23.23;;
11008;SDS011;5557;51.670;7.788;2024-03-07T10:10:37;38.70;;;23.17;;
11008;SDS011;5557;51.670;7.788;2024-03-07T10:13:04;35.40;;;24.10;;
11008;SDS011;5557;51.670;7.788;2024-03-07T10:15:32;30.93;;;22.77;;
11008;SDS011;5557;51.670;7.788;2024-03-07T10:18:00;35.63;;;23.67;;
11008;SDS011;5557;51.670;7.788;2024-03-07T10:20:28;31.80;;;22.30;;
11008;SDS011;5557;51.670;7.788;2024-03-07T10:22:56;33.80;;;22.50;;
11008;SDS011;5557;51.670;7.788;2024-03-07T10:25:24;33.60;;;23.20;;
11008;SDS011;5557;51.670;7.788;2024-03-07T10:27:57;30.50;;;22.10;;
11008;SDS011;5557;51.670;7.788;2024-03-07T10:30:25;39.60;;;24.17;;
11008;SDS011;5557;51.670;7.788;2024-03-07T10:32:59;33.77;;;23.80;;
11008;SDS011;5557;51.670;7.788;2024-03-07T10:35:28;32.70;;;22.40;;
11008;SDS011;5557;51.670;7.788;2024-03-07T10:37:57;34.40;;;23.80;;
11008;SDS011;5557;51.670;7.788;2024-03-07T10:40:33;36.40;;;24.00;;
11008;SDS011;5557;51.670;7.788;2024-03-07T10:43:09;31.03;;;21.70;;
11008;SDS011;5557;51.670;7.788;2024-03-07T10:45:41;31.67;;;24.30;;
11008;SDS011;5557;51.670;7.788;2024-03-07T10:48:18;28.97;;;21.17;;
11008;SDS011;5557;51.670;7.788;2024-03-07T10:51:02;28.10;;;19.67;;
11008;SDS011;5557;51.670;7.788;2024-03-07T10:53:54;32.67;;;22.70;;
11008;SDS011;5557;51.670;7.788;2024-03-07T10:59:57;37.13;;;23.80;;
11008;SDS011;5557;51.670;7.788;2024-03-07T11:02:39;28.90;;;20.00;;
11008;SDS011;5557;51.670;7.788;2024-03-07T11:05:12;34.30;;;22.40;;
11008;SDS011;5557;51.670;7.788;2024-03-07T11:07:42;26.73;;;20.60;;
11008;SDS011;5557;51.670;7.788;2024-03-07T11:10:10;34.40;;;19.70;;
11008;SDS011;5557;51.670;7.788;2024-03-07T11:12:39;28.40;;;20.33;;
11008;SDS011;5557;51.670;7.788;2024-03-07T11:15:08;29.37;;;21.03;;
11008;SDS011;5557;51.670;7.788;2024-03-07T11:17:49;29.60;;;20.17;;
11008;SDS011;5557;51.670;7.788;2024-03-07T11:26:05;29.27;;;20.63;;
11008;SDS011;5557;51.670;7.788;2024-03-07T11:28:37;32.83;;;21.97;;
11008;SDS011;5557;51.670;7.788;2024-03-07T11:31:06;28.23;;;20.50;;
11008;SDS011;5557;51.670;7.788;2024-03-07T11:33:38;26.70;;;18.90;;
11008;SDS011;5557;51.670;7.788;2024-03-07T11:36:07;26.07;;;20.57;;
11008;SDS011;5557;51.670;7.788;2024-03-07T11:38:36;29.20;;;21.27;;
11008;SDS011;5557;51.670;7.788;2024-03-07T11:41:04;29.90;;;20.70;;
11008;SDS011;5557;51.670;7.788;2024-03-07T11:43:34;25.33;;;19.63;;
11008;SDS011;5557;51.670;7.788;2024-03-07T11:46:01;28.53;;;19.27;;
11008;SDS011;5557;51.670;7.788;2024-03-07T11:48:29;30.53;;;21.60;;
11008;SDS011;5557;51.670;7.788;2024-03-07T11:50:57;27.63;;;19.10;;
11008;SDS011;5557;51.670;7.788;2024-03-07T11:53:24;27.40;;;19.40;;
11008;SDS011;5557;51.670;7.788;2024-03-07T11:55:51;26.83;;;18.50;;
11008;SDS011;5557;51.670;7.788;2024-03-07T11:58:20;29.57;;;19.80;;
11008;SDS011;5557;51.670;7.788;2024-03-07T12:00:49;25.40;;;17.20;;
11008;SDS011;5557;51.670;7.788;2024-03-07T12:03:18;25.67;;;19.07;;
11008;SDS011;5557;51.670;7.788;2024-03-07T12:05:52;26.20;;;19.37;;
11008;SDS011;5557;51.670;7.788;2024-03-07T12:08:19;25.53;;;18.77;;
11008;SDS011;5557;51.670;7.788;2024-03-07T12:10:51;24.03;;;17.13;;
11008;SDS011;5557;51.670;7.788;2024-03-07T12:13:24;25.53;;;17.60;;
11008;SDS011;5557;51.670;7.788;2024-03-07T12:15:53;24.90;;;19.17;;
11008;SDS011;5557;51.670;7.788;2024-03-07T12:18:22;21.00;;;16.63;;
11008;SDS011;5557;51.670;7.788;2024-03-07T12:20:50;23.30;;;16.20;;
11008;SDS011;5557;51.670;7.788;2024-03-07T12:23:22;23.63;;;17.00;;
11008;SDS011;5557;51.670;7.788;2024-03-07T12:26:02;32.03;;;18.57;;
11008;SDS011;5557;51.670;7.788;2024-03-07T12:28:31;25.43;;;17.90;;
11008;SDS011;5557;51.670;7.788;2024-03-07T12:31:02;27.23;;;18.50;;
11008;SDS011;5557;51.670;7.788;2024-03-07T12:33:31;25.70;;;17.27;;
11008;SDS011;5557;51.670;7.788;2024-03-07T12:36:06;28.80;;;21.37;;
11008;SDS011;5557;51.670;7.788;2024-03-07T12:38:34;27.60;;;19.57;;
11008;SDS011;5557;51.670;7.788;2024-03-07T12:41:05;27.83;;;20.40;;
11008;SDS011;5557;51.670;7.788;2024-03-07T12:43:34;30.37;;;19.70;;
11008;SDS011;5557;51.670;7.788;2024-03-07T12:46:01;22.97;;;18.10;;
11008;SDS011;5557;51.670;7.788;2024-03-07T12:48:32;21.17;;;17.10;;
11008;SDS011;5557;51.670;7.788;2024-03-07T12:50:59;29.10;;;18.63;;
11008;SDS011;5557;51.670;7.788;2024-03-07T12:53:29;30.20;;;20.60;;
11008;SDS011;5557;51.670;7.788;2024-03-07T12:55:58;26.00;;;18.70;;
11008;SDS011;5557;51.670;7.788;2024-03-07T12:58:25;27.27;;;19.47;;
11008;SDS011;5557;51.670;7.788;2024-03-07T13:00:53;26.57;;;19.67;;
11008;SDS011;5557;51.670;7.788;2024-03-07T13:03:23;26.90;;;18.20;;
11008;SDS011;5557;51.670;7.788;2024-03-07T13:05:57;33.97;;;21.80;;
11008;SDS011;5557;51.670;7.788;2024-03-07T13:08:28;28.03;;;19.37;;
11008;SDS011;5557;51.670;7.788;2024-03-07T13:10:58;22.23;;;16.63;;
11008;SDS011;5557;51.670;7.788;2024-03-07T13:13:27;23.00;;;17.73;;
11008;SDS011;5557;51.670;7.788;2024-03-07T13:15:54;22.33;;;16.30;;
11008;SDS011;5557;51.670;7.788;2024-03-07T13:18:22;20.53;;;14.83;;
11008;SDS011;5557;51.670;7.788;2024-03-07T13:20:50;19.17;;;15.57;;
11008;SDS011;5557;51.670;7.788;2024-03-07T13:23:17;21.97;;;16.63;;
11008;SDS011;5557;51.670;7.788;2024-03-07T13:25:44;19.93;;;15.90;;
11008;SDS011;5557;51.670;7.788;2024-03-07T13:28:12;24.77;;;16.93;;
11008;SDS011;5557;51.670;7.788;2024-03-07T13:30:43;23.70;;;16.90;;
11008;SDS011;5557;51.670;7.788;2024-03-07T13:33:11;19.67;;;16.00;;
11008;SDS011;5557;51.670;7.788;2024-03-07T13:35:38;23.67;;;16.50;;
11008;SDS011;5557;51.670;7.788;2024-03-07T13:38:07;21.10;;;16.23;;
11008;SDS011;5557;51.670;7.788;2024-03-07T13:40:36;24.70;;;17.30;;
11008;SDS011;5557;51.670;7.788;2024-03-07T13:43:06;21.07;;;15.63;;
11008;SDS011;5557;51.670;7.788;2024-03-07T13:45:34;23.10;;;15.40;;
11008;SDS011;5557;51.670;7.788;2024-03-07T13:48:06;20.77;;;15.90;;
11008;SDS011;5557;51.670;7.788;2024-03-07T13:50:35;27.40;;;16.97;;
11008;SDS011;5557;51.670;7.788;2024-03-07T13:53:22;25.67;;;15.60;;
11008;SDS011;5557;51.670;7.788;2024-03-07T14:02:04;20.83;;;15.50;;
11008;SDS011;5557;51.670;7.788;2024-03-07T14:08:26;21.93;;;14.53;;
11008;SDS011;5557;51.670;7.788;2024-03-07T14:14:34;20.50;;;14.23;;
11008;SDS011;5557;51.670;7.788;2024-03-07T14:17:17;27.73;;;14.87;;
11008;SDS011;5557;51.670;7.788;2024-03-07T14:26:34;23.87;;;15.13;;
11008;SDS011;5557;51.670;7.788;2024-03-07T14:32:36;23.77;;;15.03;;
11008;SDS011;5557;51.670;7.788;2024-03-07T14:41:20;26.60;;;16.40;;
11008;SDS011;5557;51.670;7.788;2024-03-07T14:44:07;23.27;;;16.07;;
11008;SDS011;5557;51.670;7.788;2024-03-07T14:46:34;26.27;;;15.50;;
11008;SDS011;5557;51.670;7.788;2024-03-07T14:49:01;23.63;;;15.20;;
11008;SDS011;5557;51.670;7.788;2024-03-07T14:51:29;25.40;;;15.17;;
11008;SDS011;5557;51.670;7.788;2024-03-07T14:54:01;26.73;;;14.50;;
11008;SDS011;5557;51.670;7.788;2024-03-07T14:56:29;25.53;;;14.07;;
11008;SDS011;5557;51.670;7.788;2024-03-07T14:58:57;22.83;;;13.83;;
11008;SDS011;5557;51.670;7.788;2024-03-07T15:01:25;23.47;;;13.63;;
11008;SDS011;5557;51.670;7.788;2024-03-07T15:03:53;22.37;;;15.67;;
11008;SDS011;5557;51.670;7.788;2024-03-07T15:06:21;29.33;;;17.30;;
11008;SDS011;5557;51.670;7.788;2024-03-07T15:08:48;30.97;;;16.30;;
11008;SDS011;5557;51.670;7.788;2024-03-07T15:11:33;28.50;;;15.37;;
11008;SDS011;5557;51.670;7.788;2024-03-07T15:14:02;27.43;;;15.53;;
11008;SDS011;5557;51.670;7.788;2024-03-07T15:16:30;27.10;;;14.70;;
11008;SDS011;5557;51.670;7.788;2024-03-07T15:19:06;27.97;;;16.13;;
11008;SDS011;5557;51.670;7.788;2024-03-07T15:21:37;29.70;;;16.63;;
11008;SDS011;5557;51.670;7.788;2024-03-07T15:24:04;30.97;;;17.93;;